Pagina principale
METAR-TAF:

METAR-TAF

Aeroporti :

Laurel, Mississippi, Stati Uniti

latitudine: 31-40-23N, longitudine: 089-10-22W, altezza: 73 m

Osservazione

Il bollettino è stato emesso 9 minuti fa, alle 22:35 UTC
Vento calmo
Temperature 12°C
Umidità 76%
Pressione 1025 hPa
Visibilità: 16.1 km
Cielo sereno

METAR: KLUL 162235Z AUTO 00000KT 10SM CLR 12/08 A3026 RMK AO2 T01200075

Ora: 16:44 (22:44 UTC)


TAF: mancante

Osservazioni e previsioni meteorologiche di più di 4000 aeroporti (messaggi METAR e TAF).

Le stazioni disponibili sono rappresentate dai dischi gialli e rossi sulla carta.

Puntare il mouse per vedere il nome della stazione.

Clicca sopra per visualizzare le osservazioni e previsioni meteorologiche.

Per cambiare la mappa : fare clic sui pulsanti verdi con una croce nera per ingrandire, il pulsante verde con un trattino per diminuire, o sulla freccia verde per le mappe adiacenti.


METAR-TAF: